sensor_id;sensor_type;location;lat;lon;timestamp;pressure;altitude;pressure_sealevel;temperature;humidity
42727;BME280;28372;56.832;60.658;2023-04-25T00:01:55;98153.88;;;12.83;45.13
42727;BME280;28372;56.832;60.658;2023-04-25T00:04:23;98162.00;;;12.87;45.29
42727;BME280;28372;56.832;60.658;2023-04-25T00:06:56;98161.66;;;12.92;46.04
42727;BME280;28372;56.832;60.658;2023-04-25T00:09:24;98165.50;;;12.84;45.06
42727;BME280;28372;56.832;60.658;2023-04-25T00:11:52;98164.31;;;12.81;44.74
42727;BME280;28372;56.832;60.658;2023-04-25T00:14:19;98157.31;;;12.80;44.48
42727;BME280;28372;56.832;60.658;2023-04-25T00:16:47;98162.31;;;12.75;43.84
42727;BME280;28372;56.832;60.658;2023-04-25T00:19:17;98157.31;;;12.77;43.27
42727;BME280;28372;56.832;60.658;2023-04-25T00:21:45;98157.25;;;12.73;43.07
42727;BME280;28372;56.832;60.658;2023-04-25T00:24:13;98168.53;;;12.79;42.92
42727;BME280;28372;56.832;60.658;2023-04-25T00:26:41;98162.72;;;12.77;42.86
42727;BME280;28372;56.832;60.658;2023-04-25T00:29:08;98158.06;;;12.77;42.09
42727;BME280;28372;56.832;60.658;2023-04-25T00:31:37;98149.50;;;12.72;42.41
42727;BME280;28372;56.832;60.658;2023-04-25T00:34:06;98173.19;;;12.78;42.67
42727;BME280;28372;56.832;60.658;2023-04-25T00:36:35;98168.09;;;12.70;43.03
42727;BME280;28372;56.832;60.658;2023-04-25T00:39:03;98163.06;;;12.68;42.76
42727;BME280;28372;56.832;60.658;2023-04-25T00:41:32;98172.75;;;12.69;42.81
42727;BME280;28372;56.832;60.658;2023-04-25T00:44:00;98175.06;;;12.71;42.55
42727;BME280;28372;56.832;60.658;2023-04-25T00:46:31;98171.19;;;12.68;42.68
42727;BME280;28372;56.832;60.658;2023-04-25T00:48:58;98182.38;;;12.63;42.04
42727;BME280;28372;56.832;60.658;2023-04-25T00:51:26;98183.97;;;12.64;41.91
42727;BME280;28372;56.832;60.658;2023-04-25T00:53:54;98182.78;;;12.65;41.55
42727;BME280;28372;56.832;60.658;2023-04-25T00:56:22;98185.13;;;12.66;40.92
42727;BME280;28372;56.832;60.658;2023-04-25T00:58:50;98180.88;;;12.69;41.55
42727;BME280;28372;56.832;60.658;2023-04-25T01:01:19;98175.44;;;12.69;41.34
42727;BME280;28372;56.832;60.658;2023-04-25T01:03:49;98183.66;;;12.76;41.07
42727;BME280;28372;56.832;60.658;2023-04-25T01:06:18;98181.69;;;12.73;40.75
42727;BME280;28372;56.832;60.658;2023-04-25T01:08:46;98180.53;;;12.74;40.74
42727;BME280;28372;56.832;60.658;2023-04-25T01:11:14;98179.41;;;12.75;40.29
42727;BME280;28372;56.832;60.658;2023-04-25T01:13:42;98184.44;;;12.77;39.86
42727;BME280;28372;56.832;60.658;2023-04-25T01:16:09;98191.44;;;12.81;39.33
42727;BME280;28372;56.832;60.658;2023-04-25T01:18:38;98188.03;;;12.92;39.19
42727;BME280;28372;56.832;60.658;2023-04-25T01:21:10;98193.44;;;12.92;38.41
42727;BME280;28372;56.832;60.658;2023-04-25T01:23:40;98190.00;;;12.95;38.25
42727;BME280;28372;56.832;60.658;2023-04-25T01:26:11;98198.19;;;13.06;38.45
42727;BME280;28372;56.832;60.658;2023-04-25T01:28:40;98193.16;;;13.04;37.48
42727;BME280;28372;56.832;60.658;2023-04-25T01:31:11;98204.06;;;13.11;37.09
42727;BME280;28372;56.832;60.658;2023-04-25T01:33:39;98203.31;;;13.14;37.26
42727;BME280;28372;56.832;60.658;2023-04-25T01:36:07;98208.00;;;13.21;36.70
42727;BME280;28372;56.832;60.658;2023-04-25T01:38:35;98209.22;;;13.27;36.54
42727;BME280;28372;56.832;60.658;2023-04-25T01:41:03;98204.59;;;13.31;36.81
42727;BME280;28372;56.832;60.658;2023-04-25T01:43:31;98200.69;;;13.32;35.84
42727;BME280;28372;56.832;60.658;2023-04-25T01:45:58;98203.88;;;13.42;35.56
42727;BME280;28372;56.832;60.658;2023-04-25T01:48:26;98210.88;;;13.46;35.31
42727;BME280;28372;56.832;60.658;2023-04-25T01:50:55;98214.81;;;13.56;35.89
42727;BME280;28372;56.832;60.658;2023-04-25T01:53:23;98209.44;;;13.67;35.79
42727;BME280;28372;56.832;60.658;2023-04-25T01:55:51;98211.41;;;13.66;35.05
42727;BME280;28372;56.832;60.658;2023-04-25T01:58:21;98210.63;;;13.69;34.54
42727;BME280;28372;56.832;60.658;2023-04-25T02:01:11;98212.63;;;13.83;34.56
42727;BME280;28372;56.832;60.658;2023-04-25T02:03:44;98222.00;;;13.93;34.68
42727;BME280;28372;56.832;60.658;2023-04-25T02:06:22;98220.06;;;14.01;34.53
42727;BME280;28372;56.832;60.658;2023-04-25T02:08:51;98227.84;;;14.10;34.26
42727;BME280;28372;56.832;60.658;2023-04-25T02:11:19;98234.50;;;14.16;33.95
42727;BME280;28372;56.832;60.658;2023-04-25T02:14:06;98225.97;;;14.21;33.26
42727;BME280;28372;56.832;60.658;2023-04-25T02:16:46;98245.03;;;14.39;33.90
42727;BME280;28372;56.832;60.658;2023-04-25T02:19:14;98240.38;;;14.43;33.55
42727;BME280;28372;56.832;60.658;2023-04-25T02:21:42;98248.97;;;14.56;33.34
42727;BME280;28372;56.832;60.658;2023-04-25T02:24:10;98250.56;;;14.71;33.15
42727;BME280;28372;56.832;60.658;2023-04-25T02:26:38;98250.56;;;14.82;32.70
42727;BME280;28372;56.832;60.658;2023-04-25T02:29:09;98253.69;;;14.99;33.03
42727;BME280;28372;56.832;60.658;2023-04-25T02:31:37;98243.16;;;15.12;32.60
42727;BME280;28372;56.832;60.658;2023-04-25T02:34:04;98241.56;;;15.47;32.89
42727;BME280;28372;56.832;60.658;2023-04-25T02:36:35;98248.31;;;16.23;32.12
42727;BME280;28372;56.832;60.658;2023-04-25T02:39:02;98254.81;;;17.04;31.26
42727;BME280;28372;56.832;60.658;2023-04-25T02:41:30;98250.50;;;17.83;30.41
42727;BME280;28372;56.832;60.658;2023-04-25T02:43:57;98255.81;;;18.59;29.42
42727;BME280;28372;56.832;60.658;2023-04-25T02:46:25;98261.72;;;19.32;28.66
42727;BME280;28372;56.832;60.658;2023-04-25T02:49:06;98267.28;;;20.12;27.07
42727;BME280;28372;56.832;60.658;2023-04-25T02:51:34;98259.44;;;20.84;26.03
42727;BME280;28372;56.832;60.658;2023-04-25T02:54:02;98266.50;;;21.47;25.19
42727;BME280;28372;56.832;60.658;2023-04-25T02:56:34;98259.22;;;21.99;24.63
42727;BME280;28372;56.832;60.658;2023-04-25T02:59:03;98257.22;;;22.55;23.86
42727;BME280;28372;56.832;60.658;2023-04-25T03:01:31;98260.16;;;23.12;23.34
42727;BME280;28372;56.832;60.658;2023-04-25T03:03:59;98272.13;;;23.66;22.40
42727;BME280;28372;56.832;60.658;2023-04-25T03:06:26;98262.50;;;24.15;22.30
42727;BME280;28372;56.832;60.658;2023-04-25T03:08:54;98268.78;;;24.78;20.80
42727;BME280;28372;56.832;60.658;2023-04-25T03:11:22;98274.47;;;25.34;20.42
42727;BME280;28372;56.832;60.658;2023-04-25T03:13:50;98263.50;;;25.95;19.30
42727;BME280;28372;56.832;60.658;2023-04-25T03:16:20;98267.06;;;26.48;19.11
42727;BME280;28372;56.832;60.658;2023-04-25T03:18:49;98270.38;;;27.04;18.23
42727;BME280;28372;56.832;60.658;2023-04-25T03:21:18;98274.44;;;27.42;18.35
42727;BME280;28372;56.832;60.658;2023-04-25T03:23:45;98270.41;;;27.82;17.85
42727;BME280;28372;56.832;60.658;2023-04-25T03:26:13;98277.16;;;28.20;17.42
42727;BME280;28372;56.832;60.658;2023-04-25T03:28:41;98282.59;;;28.60;17.10
42727;BME280;28372;56.832;60.658;2023-04-25T03:31:09;98273.06;;;29.02;16.93
42727;BME280;28372;56.832;60.658;2023-04-25T03:33:36;98278.47;;;29.47;16.47
42727;BME280;28372;56.832;60.658;2023-04-25T03:36:05;98285.19;;;29.81;16.02
42727;BME280;28372;56.832;60.658;2023-04-25T03:38:32;98276.44;;;30.20;15.80
42727;BME280;28372;56.832;60.658;2023-04-25T03:41:01;98280.44;;;30.78;15.48
42727;BME280;28372;56.832;60.658;2023-04-25T03:43:38;98275.28;;;31.08;14.88
42727;BME280;28372;56.832;60.658;2023-04-25T03:46:10;98278.75;;;31.46;14.79
42727;BME280;28372;56.832;60.658;2023-04-25T03:48:39;98277.63;;;31.98;13.77
42727;BME280;28372;56.832;60.658;2023-04-25T03:51:08;98276.91;;;32.20;13.98
42727;BME280;28372;56.832;60.658;2023-04-25T03:53:39;98278.41;;;32.50;14.32
42727;BME280;28372;56.832;60.658;2023-04-25T03:56:18;98281.22;;;32.72;13.90
42727;BME280;28372;56.832;60.658;2023-04-25T03:58:50;98279.13;;;33.01;13.70
42727;BME280;28372;56.832;60.658;2023-04-25T04:01:19;98283.88;;;33.35;13.70
42727;BME280;28372;56.832;60.658;2023-04-25T04:03:47;98270.63;;;33.83;13.19
42727;BME280;28372;56.832;60.658;2023-04-25T04:06:16;98291.72;;;34.25;12.59
42727;BME280;28372;56.832;60.658;2023-04-25T04:08:48;98268.66;;;34.44;12.57
42727;BME280;28372;56.832;60.658;2023-04-25T04:11:16;98271.94;;;34.73;12.27
42727;BME280;28372;56.832;60.658;2023-04-25T04:13:44;98284.06;;;35.11;11.92
42727;BME280;28372;56.832;60.658;2023-04-25T04:16:11;98271.22;;;35.41;12.23
42727;BME280;28372;56.832;60.658;2023-04-25T04:18:39;98281.38;;;35.63;11.41
42727;BME280;28372;56.832;60.658;2023-04-25T04:21:07;98280.50;;;36.06;11.18
42727;BME280;28372;56.832;60.658;2023-04-25T04:23:38;98280.06;;;36.34;11.02
42727;BME280;28372;56.832;60.658;2023-04-25T04:26:13;98291.38;;;36.61;11.04
42727;BME280;28372;56.832;60.658;2023-04-25T04:29:05;98285.72;;;36.94;10.64
42727;BME280;28372;56.832;60.658;2023-04-25T04:31:47;98283.94;;;37.17;10.94
42727;BME280;28372;56.832;60.658;2023-04-25T04:34:14;98293.94;;;37.18;10.75
42727;BME280;28372;56.832;60.658;2023-04-25T04:36:45;98286.25;;;37.32;10.64
42727;BME280;28372;56.832;60.658;2023-04-25T04:39:14;98292.50;;;37.12;10.90
42727;BME280;28372;56.832;60.658;2023-04-25T04:41:55;98283.97;;;37.04;10.68
42727;BME280;28372;56.832;60.658;2023-04-25T04:44:33;98278.56;;;37.81;9.62
42727;BME280;28372;56.832;60.658;2023-04-25T04:47:11;98269.81;;;38.13;9.89
42727;BME280;28372;56.832;60.658;2023-04-25T04:50:12;98279.41;;;38.31;9.82
42727;BME280;28372;56.832;60.658;2023-04-25T04:53:01;98279.38;;;38.73;9.34
42727;BME280;28372;56.832;60.658;2023-04-25T04:55:57;98261.13;;;39.11;9.22
42727;BME280;28372;56.832;60.658;2023-04-25T04:58:43;98269.47;;;39.17;9.32
42727;BME280;28372;56.832;60.658;2023-04-25T05:01:21;98285.06;;;39.47;9.16
42727;BME280;28372;56.832;60.658;2023-04-25T05:03:55;98271.41;;;39.37;9.29
42727;BME280;28372;56.832;60.658;2023-04-25T05:06:40;98274.63;;;39.34;9.44
42727;BME280;28372;56.832;60.658;2023-04-25T05:09:26;98289.41;;;39.55;9.27
42727;BME280;28372;56.832;60.658;2023-04-25T05:12:07;98272.88;;;39.67;8.94
42727;BME280;28372;56.832;60.658;2023-04-25T05:14:53;98279.91;;;39.97;8.43
42727;BME280;28372;56.832;60.658;2023-04-25T05:17:39;98276.19;;;40.10;8.95
42727;BME280;28372;56.832;60.658;2023-04-25T05:20:33;98281.66;;;40.39;8.29
42727;BME280;28372;56.832;60.658;2023-04-25T05:23:00;98269.59;;;40.62;8.73
42727;BME280;28372;56.832;60.658;2023-04-25T05:25:54;98279.56;;;40.78;8.55
42727;BME280;28372;56.832;60.658;2023-04-25T05:28:40;98288.63;;;40.84;8.76
42727;BME280;28372;56.832;60.658;2023-04-25T05:31:44;98280.38;;;41.27;8.47
42727;BME280;28372;56.832;60.658;2023-04-25T05:34:15;98264.38;;;41.55;8.01
42727;BME280;28372;56.832;60.658;2023-04-25T05:36:50;98268.31;;;42.00;7.95
42727;BME280;28372;56.832;60.658;2023-04-25T05:39:18;98278.16;;;41.99;8.14
42727;BME280;28372;56.832;60.658;2023-04-25T05:42:04;98265.22;;;41.73;8.17
42727;BME280;28372;56.832;60.658;2023-04-25T05:44:44;98269.09;;;41.93;7.64
42727;BME280;28372;56.832;60.658;2023-04-25T05:47:41;98276.13;;;41.92;7.78
42727;BME280;28372;56.832;60.658;2023-04-25T05:50:19;98274.03;;;41.92;7.92
42727;BME280;28372;56.832;60.658;2023-04-25T05:53:12;98266.63;;;42.22;7.58
42727;BME280;28372;56.832;60.658;2023-04-25T05:55:42;98272.31;;;42.22;7.34
42727;BME280;28372;56.832;60.658;2023-04-25T05:58:21;98259.06;;;42.42;7.59
42727;BME280;28372;56.832;60.658;2023-04-25T06:00:49;98276.78;;;42.76;7.25
42727;BME280;28372;56.832;60.658;2023-04-25T06:03:16;98258.28;;;43.02;7.34
42727;BME280;28372;56.832;60.658;2023-04-25T06:05:47;98269.03;;;43.11;7.44
42727;BME280;28372;56.832;60.658;2023-04-25T06:08:14;98265.84;;;43.07;7.31
42727;BME280;28372;56.832;60.658;2023-04-25T06:10:42;98275.00;;;42.98;7.00
42727;BME280;28372;56.832;60.658;2023-04-25T06:13:10;98274.09;;;43.30;6.81
42727;BME280;28372;56.832;60.658;2023-04-25T06:15:38;98270.56;;;43.40;6.97
42727;BME280;28372;56.832;60.658;2023-04-25T06:18:06;98277.31;;;43.44;7.27
42727;BME280;28372;56.832;60.658;2023-04-25T06:20:34;98267.53;;;43.55;6.78
42727;BME280;28372;56.832;60.658;2023-04-25T06:23:02;98259.69;;;43.46;6.67
42727;BME280;28372;56.832;60.658;2023-04-25T06:25:49;98267.00;;;43.22;6.71
42727;BME280;28372;56.832;60.658;2023-04-25T06:28:17;98257.75;;;43.49;6.10
42727;BME280;28372;56.832;60.658;2023-04-25T06:30:45;98255.34;;;43.45;6.75
42727;BME280;28372;56.832;60.658;2023-04-25T06:33:16;98255.28;;;43.62;6.52
42727;BME280;28372;56.832;60.658;2023-04-25T06:35:44;98252.47;;;43.72;6.66
42727;BME280;28372;56.832;60.658;2023-04-25T06:38:15;98254.09;;;43.66;7.07
42727;BME280;28372;56.832;60.658;2023-04-25T06:40:47;98252.97;;;43.78;7.25
42727;BME280;28372;56.832;60.658;2023-04-25T06:43:15;98248.88;;;43.72;6.35
42727;BME280;28372;56.832;60.658;2023-04-25T06:46:02;98255.34;;;43.45;6.66
42727;BME280;28372;56.832;60.658;2023-04-25T06:48:32;98261.44;;;43.41;6.77
42727;BME280;28372;56.832;60.658;2023-04-25T06:51:00;98255.72;;;43.59;6.60
42727;BME280;28372;56.832;60.658;2023-04-25T06:53:28;98246.88;;;43.92;6.68
42727;BME280;28372;56.832;60.658;2023-04-25T06:55:59;98244.06;;;44.02;6.17
42727;BME280;28372;56.832;60.658;2023-04-25T06:58:38;98234.03;;;44.10;6.37
42727;BME280;28372;56.832;60.658;2023-04-25T07:01:28;98239.16;;;44.12;6.52
42727;BME280;28372;56.832;60.658;2023-04-25T07:03:58;98244.19;;;44.31;6.16
42727;BME280;28372;56.832;60.658;2023-04-25T07:06:28;98239.22;;;44.31;6.43
42727;BME280;28372;56.832;60.658;2023-04-25T07:08:56;98246.72;;;44.27;6.10
42727;BME280;28372;56.832;60.658;2023-04-25T07:11:24;98239.00;;;44.10;6.14
42727;BME280;28372;56.832;60.658;2023-04-25T07:13:52;98229.13;;;43.84;6.96
42727;BME280;28372;56.832;60.658;2023-04-25T07:16:19;98240.75;;;43.41;6.45
42727;BME280;28372;56.832;60.658;2023-04-25T07:18:47;98239.56;;;43.17;6.18
42727;BME280;28372;56.832;60.658;2023-04-25T07:21:15;98229.66;;;42.83;6.72
42727;BME280;28372;56.832;60.658;2023-04-25T07:23:45;98227.72;;;42.50;6.88
42727;BME280;28372;56.832;60.658;2023-04-25T07:26:16;98235.22;;;42.12;7.31
42727;BME280;28372;56.832;60.658;2023-04-25T07:29:03;98232.53;;;41.64;7.20
42727;BME280;28372;56.832;60.658;2023-04-25T07:31:30;98223.66;;;41.19;7.54
42727;BME280;28372;56.832;60.658;2023-04-25T07:33:58;98228.38;;;40.68;7.42
42727;BME280;28372;56.832;60.658;2023-04-25T07:36:28;98216.09;;;40.27;7.54
42727;BME280;28372;56.832;60.658;2023-04-25T07:38:55;98225.91;;;39.95;8.34
42727;BME280;28372;56.832;60.658;2023-04-25T07:41:23;98232.06;;;39.55;8.43
42727;BME280;28372;56.832;60.658;2023-04-25T07:43:51;98218.00;;;38.89;8.41
42727;BME280;28372;56.832;60.658;2023-04-25T07:46:19;98208.44;;;38.64;8.56
42727;BME280;28372;56.832;60.658;2023-04-25T07:48:47;98206.91;;;38.34;9.66
42727;BME280;28372;56.832;60.658;2023-04-25T07:51:15;98221.88;;;37.79;8.87
42727;BME280;28372;56.832;60.658;2023-04-25T07:53:43;98202.94;;;37.52;9.21
42727;BME280;28372;56.832;60.658;2023-04-25T07:56:14;98206.59;;;37.40;9.82
42727;BME280;28372;56.832;60.658;2023-04-25T07:58:44;98216.63;;;37.14;9.77
42727;BME280;28372;56.832;60.658;2023-04-25T08:01:14;98214.13;;;36.70;9.50
42727;BME280;28372;56.832;60.658;2023-04-25T08:03:48;98218.13;;;36.61;9.59
42727;BME280;28372;56.832;60.658;2023-04-25T08:06:29;98218.56;;;36.06;9.91
42727;BME280;28372;56.832;60.658;2023-04-25T08:09:09;98208.44;;;35.84;9.89
42727;BME280;28372;56.832;60.658;2023-04-25T08:11:39;98215.16;;;35.81;10.74
42727;BME280;28372;56.832;60.658;2023-04-25T08:14:08;98208.44;;;35.32;10.02
42727;BME280;28372;56.832;60.658;2023-04-25T08:16:38;98200.44;;;35.37;10.14
42727;BME280;28372;56.832;60.658;2023-04-25T08:19:06;98210.50;;;35.26;10.09
42727;BME280;28372;56.832;60.658;2023-04-25T08:21:34;98203.72;;;34.97;10.09
42727;BME280;28372;56.832;60.658;2023-04-25T08:24:05;98188.78;;;34.64;10.12
42727;BME280;28372;56.832;60.658;2023-04-25T08:26:36;98200.91;;;34.97;10.35
42727;BME280;28372;56.832;60.658;2023-04-25T08:29:06;98196.53;;;34.77;10.42
42727;BME280;28372;56.832;60.658;2023-04-25T08:31:38;98191.78;;;34.47;10.28
42727;BME280;28372;56.832;60.658;2023-04-25T08:34:07;98186.03;;;34.34;10.61
42727;BME280;28372;56.832;60.658;2023-04-25T08:36:43;98197.63;;;34.49;10.87
42727;BME280;28372;56.832;60.658;2023-04-25T08:39:22;98198.72;;;34.40;10.89
42727;BME280;28372;56.832;60.658;2023-04-25T08:42:15;98192.88;;;33.72;10.62
42727;BME280;28372;56.832;60.658;2023-04-25T08:44:44;98191.47;;;33.54;10.89
42727;BME280;28372;56.832;60.658;2023-04-25T08:47:13;98183.19;;;33.37;10.80
42727;BME280;28372;56.832;60.658;2023-04-25T08:49:46;98185.59;;;33.10;10.95
42727;BME280;28372;56.832;60.658;2023-04-25T08:52:23;98213.63;;;33.04;11.66
42727;BME280;28372;56.832;60.658;2023-04-25T08:54:54;98207.66;;;32.55;11.45
42727;BME280;28372;56.832;60.658;2023-04-25T08:57:23;98201.84;;;32.36;11.57
42727;BME280;28372;56.832;60.658;2023-04-25T08:59:52;98200.06;;;32.10;11.35
42727;BME280;28372;56.832;60.658;2023-04-25T09:02:21;98209.22;;;31.99;11.59
42727;BME280;28372;56.832;60.658;2023-04-25T09:04:50;98197.03;;;32.31;11.49
42727;BME280;28372;56.832;60.658;2023-04-25T09:07:18;98203.63;;;32.05;11.95
42727;BME280;28372;56.832;60.658;2023-04-25T09:09:49;98197.19;;;31.53;11.87
42727;BME280;28372;56.832;60.658;2023-04-25T09:12:20;98205.50;;;31.19;12.39
42727;BME280;28372;56.832;60.658;2023-04-25T09:15:07;98203.63;;;31.76;12.83
42727;BME280;28372;56.832;60.658;2023-04-25T09:18:01;98201.03;;;30.90;12.44
42727;BME280;28372;56.832;60.658;2023-04-25T09:20:41;98204.75;;;31.19;12.70
42727;BME280;28372;56.832;60.658;2023-04-25T09:23:25;98208.69;;;31.89;13.39
42727;BME280;28372;56.832;60.658;2023-04-25T09:25:53;98200.41;;;30.63;12.75
42727;BME280;28372;56.832;60.658;2023-04-25T09:28:25;98203.59;;;30.45;13.34
42727;BME280;28372;56.832;60.658;2023-04-25T09:30:57;98194.09;;;29.99;12.79
42727;BME280;28372;56.832;60.658;2023-04-25T09:33:45;98189.03;;;29.45;13.13
42727;BME280;28372;56.832;60.658;2023-04-25T09:36:13;98189.81;;;29.25;13.41
42727;BME280;28372;56.832;60.658;2023-04-25T09:39:12;98194.53;;;29.65;13.31
42727;BME280;28372;56.832;60.658;2023-04-25T09:41:53;98196.09;;;29.19;13.89
42727;BME280;28372;56.832;60.658;2023-04-25T09:44:25;98191.75;;;29.18;13.90
42727;BME280;28372;56.832;60.658;2023-04-25T09:46:54;98184.88;;;28.93;13.85
42727;BME280;28372;56.832;60.658;2023-04-25T09:49:27;98194.13;;;28.64;14.34
42727;BME280;28372;56.832;60.658;2023-04-25T09:52:13;98194.50;;;28.57;14.64
42727;BME280;28372;56.832;60.658;2023-04-25T09:54:56;98180.88;;;28.23;14.82
42727;BME280;28372;56.832;60.658;2023-04-25T09:57:33;98197.78;;;28.05;14.52
42727;BME280;28372;56.832;60.658;2023-04-25T10:00:01;98194.31;;;27.80;14.77
42727;BME280;28372;56.832;60.658;2023-04-25T10:02:42;98197.50;;;27.88;14.87
42727;BME280;28372;56.832;60.658;2023-04-25T10:05:18;98187.69;;;27.77;15.27
42727;BME280;28372;56.832;60.658;2023-04-25T10:07:46;98190.19;;;27.75;15.39
42727;BME280;28372;56.832;60.658;2023-04-25T10:10:16;98188.09;;;27.55;15.13
42727;BME280;28372;56.832;60.658;2023-04-25T10:12:45;98183.41;;;27.22;15.76
42727;BME280;28372;56.832;60.658;2023-04-25T10:15:13;98194.84;;;27.39;15.15
42727;BME280;28372;56.832;60.658;2023-04-25T10:17:43;98191.00;;;27.37;15.55
42727;BME280;28372;56.832;60.658;2023-04-25T10:20:11;98178.31;;;27.21;15.78
42727;BME280;28372;56.832;60.658;2023-04-25T10:22:43;98188.38;;;27.18;15.53
42727;BME280;28372;56.832;60.658;2023-04-25T10:25:12;98181.72;;;27.00;15.84
42727;BME280;28372;56.832;60.658;2023-04-25T10:27:40;98175.56;;;27.21;15.12
42727;BME280;28372;56.832;60.658;2023-04-25T10:30:10;98179.50;;;27.29;15.11
42727;BME280;28372;56.832;60.658;2023-04-25T10:32:43;98170.16;;;27.17;15.00
42727;BME280;28372;56.832;60.658;2023-04-25T10:35:25;98183.00;;;27.39;15.53
42727;BME280;28372;56.832;60.658;2023-04-25T10:40:33;98177.75;;;26.68;15.74
42727;BME280;28372;56.832;60.658;2023-04-25T10:43:39;98188.41;;;26.94;15.83
42727;BME280;28372;56.832;60.658;2023-04-25T10:48:51;98177.97;;;26.22;15.82
42727;BME280;28372;56.832;60.658;2023-04-25T10:51:27;98176.59;;;26.26;15.87
42727;BME280;28372;56.832;60.658;2023-04-25T10:54:05;98181.16;;;26.05;16.30
42727;BME280;28372;56.832;60.658;2023-04-25T11:01:48;98187.00;;;25.89;16.26
42727;BME280;28372;56.832;60.658;2023-04-25T11:04:29;98175.13;;;25.97;16.59
42727;BME280;28372;56.832;60.658;2023-04-25T11:09:40;98178.59;;;25.64;16.18
42727;BME280;28372;56.832;60.658;2023-04-25T11:12:09;98179.06;;;25.63;16.31
42727;BME280;28372;56.832;60.658;2023-04-25T11:14:39;98175.38;;;25.57;16.13
42727;BME280;28372;56.832;60.658;2023-04-25T11:17:11;98174.16;;;26.19;15.91
42727;BME280;28372;56.832;60.658;2023-04-25T11:19:39;98162.47;;;25.63;16.35
42727;BME280;28372;56.832;60.658;2023-04-25T11:22:06;98173.69;;;25.50;16.46
42727;BME280;28372;56.832;60.658;2023-04-25T11:24:35;98168.00;;;25.44;16.33
42727;BME280;28372;56.832;60.658;2023-04-25T11:27:04;98179.53;;;25.43;16.73
42727;BME280;28372;56.832;60.658;2023-04-25T11:29:34;98166.94;;;25.33;16.82
42727;BME280;28372;56.832;60.658;2023-04-25T11:32:02;98166.44;;;25.25;16.43
42727;BME280;28372;56.832;60.658;2023-04-25T11:34:31;98167.09;;;25.20;16.81
42727;BME280;28372;56.832;60.658;2023-04-25T11:37:01;98171.41;;;25.21;16.72
42727;BME280;28372;56.832;60.658;2023-04-25T11:39:30;98172.75;;;25.16;16.83
42727;BME280;28372;56.832;60.658;2023-04-25T11:41:58;98168.63;;;25.11;16.89
42727;BME280;28372;56.832;60.658;2023-04-25T11:44:45;98165.22;;;25.07;16.90
42727;BME280;28372;56.832;60.658;2023-04-25T11:47:13;98174.28;;;25.08;16.98
42727;BME280;28372;56.832;60.658;2023-04-25T11:49:40;98162.59;;;25.04;17.14
42727;BME280;28372;56.832;60.658;2023-04-25T11:52:08;98154.78;;;25.11;16.88
42727;BME280;28372;56.832;60.658;2023-04-25T11:54:37;98172.16;;;25.21;16.68
42727;BME280;28372;56.832;60.658;2023-04-25T11:57:05;98154.78;;;25.11;16.64
42727;BME280;28372;56.832;60.658;2023-04-25T11:59:32;98164.94;;;25.05;16.64
42727;BME280;28372;56.832;60.658;2023-04-25T12:02:00;98160.31;;;25.02;16.91
42727;BME280;28372;56.832;60.658;2023-04-25T12:04:30;98174.16;;;24.93;17.10
42727;BME280;28372;56.832;60.658;2023-04-25T12:06:59;98163.38;;;24.86;16.83
42727;BME280;28372;56.832;60.658;2023-04-25T12:09:33;98154.75;;;24.84;17.38
42727;BME280;28372;56.832;60.658;2023-04-25T12:12:01;98154.13;;;24.61;17.01
42727;BME280;28372;56.832;60.658;2023-04-25T12:14:31;98160.22;;;24.56;17.20
42727;BME280;28372;56.832;60.658;2023-04-25T12:17:02;98159.75;;;24.57;17.29
42727;BME280;28372;56.832;60.658;2023-04-25T12:19:37;98164.00;;;24.80;17.27
42727;BME280;28372;56.832;60.658;2023-04-25T12:22:23;98158.44;;;24.90;17.08
42727;BME280;28372;56.832;60.658;2023-04-25T12:24:51;98146.09;;;24.54;17.08
42727;BME280;28372;56.832;60.658;2023-04-25T12:27:21;98153.75;;;24.50;17.21
42727;BME280;28372;56.832;60.658;2023-04-25T12:29:53;98152.38;;;24.54;17.11
42727;BME280;28372;56.832;60.658;2023-04-25T12:32:21;98152.63;;;24.38;17.30
42727;BME280;28372;56.832;60.658;2023-04-25T12:34:49;98143.88;;;24.30;17.39
42727;BME280;28372;56.832;60.658;2023-04-25T12:37:16;98152.00;;;24.24;17.17
42727;BME280;28372;56.832;60.658;2023-04-25T12:39:44;98152.13;;;24.21;17.58
42727;BME280;28372;56.832;60.658;2023-04-25T12:42:11;98147.63;;;24.05;17.53
42727;BME280;28372;56.832;60.658;2023-04-25T12:44:39;98145.97;;;24.07;17.69
42727;BME280;28372;56.832;60.658;2023-04-25T12:47:07;98144.00;;;24.17;18.03
42727;BME280;28372;56.832;60.658;2023-04-25T12:49:35;98144.41;;;24.06;18.07
42727;BME280;28372;56.832;60.658;2023-04-25T12:52:03;98135.59;;;23.89;17.73
42727;BME280;28372;56.832;60.658;2023-04-25T12:54:30;98146.06;;;23.94;18.14
42727;BME280;28372;56.832;60.658;2023-04-25T12:56:58;98148.94;;;23.91;18.16
42727;BME280;28372;56.832;60.658;2023-04-25T12:59:26;98131.53;;;23.81;18.48
42727;BME280;28372;56.832;60.658;2023-04-25T13:01:53;98136.06;;;23.97;18.01
42727;BME280;28372;56.832;60.658;2023-04-25T13:04:21;98146.09;;;24.04;18.07
42727;BME280;28372;56.832;60.658;2023-04-25T13:06:49;98139.47;;;24.01;18.02
42727;BME280;28372;56.832;60.658;2023-04-25T13:09:16;98143.41;;;23.91;18.07
42727;BME280;28372;56.832;60.658;2023-04-25T13:11:44;98139.25;;;23.86;18.41
42727;BME280;28372;56.832;60.658;2023-04-25T13:14:13;98132.16;;;23.85;18.91
42727;BME280;28372;56.832;60.658;2023-04-25T13:16:40;98148.38;;;23.74;18.57
42727;BME280;28372;56.832;60.658;2023-04-25T13:19:08;98150.38;;;23.73;18.29
42727;BME280;28372;56.832;60.658;2023-04-25T13:21:38;98150.50;;;23.70;17.99
42727;BME280;28372;56.832;60.658;2023-04-25T13:24:06;98144.34;;;23.66;18.18
42727;BME280;28372;56.832;60.658;2023-04-25T13:26:34;98145.09;;;23.66;18.55
42727;BME280;28372;56.832;60.658;2023-04-25T13:29:02;98143.59;;;23.65;18.43
42727;BME280;28372;56.832;60.658;2023-04-25T13:31:31;98148.78;;;23.63;18.79